Chickama, Louisiana
Current Conditions -  °F | °C
As of 11:53 AM on Wednesday 28 Jan 2015 (Local Time) from KAEX Reporting Station
Clear Clear  
Wind Chill: 64°   Ceiling: Unl
Heat Index: 64°   Visibility: 10mi
Dew Point: 42°   Wind: 10mph
Humidity: 45%   Direction: 150°SSE
Pressure: 30.24"   Gusts: NA
Location:  31.1282°N, 92.3823°W
Report Text: KAEX 281753Z 15009KT 10SM CLR 18/06 A3024 RMK AO2 SLP242 T01780056 10178 20039 58001
Loading
Personal Weather Stations






























Interactive Weather Map New forecast layout! Learn more

10-Day Weather Forecast

Advertisements
Track Severe Weather on mobile